sensor_id;sensor_type;location;lat;lon;timestamp;temperature;humidity
21271;DHT22;10795;50.796;3.860;2024-02-28T00:01:16;6.60;99.90
21271;DHT22;10795;50.796;3.860;2024-02-28T00:03:42;6.30;99.90
21271;DHT22;10795;50.796;3.860;2024-02-28T00:06:10;6.20;99.90
21271;DHT22;10795;50.796;3.860;2024-02-28T00:08:41;6.00;99.90
21271;DHT22;10795;50.796;3.860;2024-02-28T00:11:06;5.80;99.90
21271;DHT22;10795;50.796;3.860;2024-02-28T00:13:32;4.90;99.90
21271;DHT22;10795;50.796;3.860;2024-02-28T00:15:58;4.60;99.90
21271;DHT22;10795;50.796;3.860;2024-02-28T00:18:24;4.30;99.90
21271;DHT22;10795;50.796;3.860;2024-02-28T00:20:49;4.70;99.90
21271;DHT22;10795;50.796;3.860;2024-02-28T00:23:18;4.60;99.90
21271;DHT22;10795;50.796;3.860;2024-02-28T00:25:43;4.40;99.90
21271;DHT22;10795;50.796;3.860;2024-02-28T00:28:09;4.20;99.90
21271;DHT22;10795;50.796;3.860;2024-02-28T00:30:37;4.50;99.90
21271;DHT22;10795;50.796;3.860;2024-02-28T00:33:03;4.60;99.90
21271;DHT22;10795;50.796;3.860;2024-02-28T00:35:32;4.40;99.90
21271;DHT22;10795;50.796;3.860;2024-02-28T00:38:01;4.30;99.90
21271;DHT22;10795;50.796;3.860;2024-02-28T00:40:29;4.20;99.90
21271;DHT22;10795;50.796;3.860;2024-02-28T00:42:55;4.40;99.90
21271;DHT22;10795;50.796;3.860;2024-02-28T00:45:21;4.50;99.90
21271;DHT22;10795;50.796;3.860;2024-02-28T00:47:49;4.40;99.90
21271;DHT22;10795;50.796;3.860;2024-02-28T00:50:17;4.40;99.90
21271;DHT22;10795;50.796;3.860;2024-02-28T00:52:45;4.40;99.90
21271;DHT22;10795;50.796;3.860;2024-02-28T00:55:11;4.40;99.90
21271;DHT22;10795;50.796;3.860;2024-02-28T00:57:37;4.80;99.90
21271;DHT22;10795;50.796;3.860;2024-02-28T01:00:03;4.80;99.90
21271;DHT22;10795;50.796;3.860;2024-02-28T01:02:36;4.80;99.90
21271;DHT22;10795;50.796;3.860;2024-02-28T01:05:04;4.40;99.90
21271;DHT22;10795;50.796;3.860;2024-02-28T01:07:32;4.10;99.90
21271;DHT22;10795;50.796;3.860;2024-02-28T01:09:58;3.70;99.90
21271;DHT22;10795;50.796;3.860;2024-02-28T01:12:23;3.50;99.90
21271;DHT22;10795;50.796;3.860;2024-02-28T01:14:49;4.10;99.90
21271;DHT22;10795;50.796;3.860;2024-02-28T01:17:17;4.00;99.90
21271;DHT22;10795;50.796;3.860;2024-02-28T01:19:45;3.80;99.90
21271;DHT22;10795;50.796;3.860;2024-02-28T01:22:13;4.00;99.90
21271;DHT22;10795;50.796;3.860;2024-02-28T01:24:43;3.60;99.90
21271;DHT22;10795;50.796;3.860;2024-02-28T01:27:11;3.90;99.90
21271;DHT22;10795;50.796;3.860;2024-02-28T01:29:36;3.70;99.90
21271;DHT22;10795;50.796;3.860;2024-02-28T01:32:07;3.70;99.90
21271;DHT22;10795;50.796;3.860;2024-02-28T01:34:37;3.80;99.90
21271;DHT22;10795;50.796;3.860;2024-02-28T01:37:05;4.20;99.90
21271;DHT22;10795;50.796;3.860;2024-02-28T01:39:33;4.30;99.90
21271;DHT22;10795;50.796;3.860;2024-02-28T01:42:04;4.70;99.90
21271;DHT22;10795;50.796;3.860;2024-02-28T01:44:40;4.40;99.90
21271;DHT22;10795;50.796;3.860;2024-02-28T01:47:08;3.90;99.90
21271;DHT22;10795;50.796;3.860;2024-02-28T01:49:37;3.70;99.90
21271;DHT22;10795;50.796;3.860;2024-02-28T01:52:04;3.90;99.90
21271;DHT22;10795;50.796;3.860;2024-02-28T01:54:30;3.70;99.90
21271;DHT22;10795;50.796;3.860;2024-02-28T01:57:00;3.60;99.90
21271;DHT22;10795;50.796;3.860;2024-02-28T01:59:32;3.80;99.90
21271;DHT22;10795;50.796;3.860;2024-02-28T02:01:58;3.90;99.90
21271;DHT22;10795;50.796;3.860;2024-02-28T02:04:24;4.10;99.90
21271;DHT22;10795;50.796;3.860;2024-02-28T02:06:52;3.90;99.90
21271;DHT22;10795;50.796;3.860;2024-02-28T02:09:24;3.40;99.90
21271;DHT22;10795;50.796;3.860;2024-02-28T02:11:53;3.20;99.90
21271;DHT22;10795;50.796;3.860;2024-02-28T02:14:21;3.10;99.90
21271;DHT22;10795;50.796;3.860;2024-02-28T02:16:47;3.10;99.90
21271;DHT22;10795;50.796;3.860;2024-02-28T02:19:15;3.10;99.90
21271;DHT22;10795;50.796;3.860;2024-02-28T02:21:48;3.40;99.90
21271;DHT22;10795;50.796;3.860;2024-02-28T02:24:17;3.20;99.90
21271;DHT22;10795;50.796;3.860;2024-02-28T02:26:42;3.10;99.90
21271;DHT22;10795;50.796;3.860;2024-02-28T02:29:11;2.90;99.90
21271;DHT22;10795;50.796;3.860;2024-02-28T02:31:37;3.00;99.90
21271;DHT22;10795;50.796;3.860;2024-02-28T02:34:06;2.90;99.90
21271;DHT22;10795;50.796;3.860;2024-02-28T02:36:34;3.10;99.90
21271;DHT22;10795;50.796;3.860;2024-02-28T02:39:00;3.00;99.90
21271;DHT22;10795;50.796;3.860;2024-02-28T02:41:25;2.80;99.90
21271;DHT22;10795;50.796;3.860;2024-02-28T02:43:51;2.70;99.90
21271;DHT22;10795;50.796;3.860;2024-02-28T02:46:18;2.70;99.90
21271;DHT22;10795;50.796;3.860;2024-02-28T02:48:46;2.50;99.90
21271;DHT22;10795;50.796;3.860;2024-02-28T02:51:14;2.50;99.90
21271;DHT22;10795;50.796;3.860;2024-02-28T02:53:40;2.70;99.90
21271;DHT22;10795;50.796;3.860;2024-02-28T02:56:06;2.50;99.90
21271;DHT22;10795;50.796;3.860;2024-02-28T02:58:34;2.60;99.90
21271;DHT22;10795;50.796;3.860;2024-02-28T03:01:03;2.50;99.90
21271;DHT22;10795;50.796;3.860;2024-02-28T03:03:28;2.50;99.90
21271;DHT22;10795;50.796;3.860;2024-02-28T03:05:56;2.50;99.90
21271;DHT22;10795;50.796;3.860;2024-02-28T03:08:22;2.40;99.90
21271;DHT22;10795;50.796;3.860;2024-02-28T03:10:50;2.70;99.90
21271;DHT22;10795;50.796;3.860;2024-02-28T03:13:19;2.90;99.90
21271;DHT22;10795;50.796;3.860;2024-02-28T03:15:49;2.80;99.90
21271;DHT22;10795;50.796;3.860;2024-02-28T03:18:15;2.80;99.90
21271;DHT22;10795;50.796;3.860;2024-02-28T03:20:41;3.40;99.90
21271;DHT22;10795;50.796;3.860;2024-02-28T03:23:06;3.20;99.90
21271;DHT22;10795;50.796;3.860;2024-02-28T03:25:35;3.70;99.90
21271;DHT22;10795;50.796;3.860;2024-02-28T03:28:01;3.60;99.90
21271;DHT22;10795;50.796;3.860;2024-02-28T03:30:27;3.20;99.90
21271;DHT22;10795;50.796;3.860;2024-02-28T03:32:55;3.00;99.90
21271;DHT22;10795;50.796;3.860;2024-02-28T03:35:20;3.10;99.90
21271;DHT22;10795;50.796;3.860;2024-02-28T03:37:48;2.90;99.90
21271;DHT22;10795;50.796;3.860;2024-02-28T03:40:16;2.70;99.90
21271;DHT22;10795;50.796;3.860;2024-02-28T03:42:42;2.50;99.90
21271;DHT22;10795;50.796;3.860;2024-02-28T03:45:11;2.50;99.90
21271;DHT22;10795;50.796;3.860;2024-02-28T03:47:42;2.40;99.90
21271;DHT22;10795;50.796;3.860;2024-02-28T03:50:12;2.50;99.90
21271;DHT22;10795;50.796;3.860;2024-02-28T03:52:37;2.40;99.90
21271;DHT22;10795;50.796;3.860;2024-02-28T03:55:06;2.40;99.90
21271;DHT22;10795;50.796;3.860;2024-02-28T03:57:34;2.50;99.90
21271;DHT22;10795;50.796;3.860;2024-02-28T04:00:03;2.30;99.90
21271;DHT22;10795;50.796;3.860;2024-02-28T04:02:37;2.30;99.90
21271;DHT22;10795;50.796;3.860;2024-02-28T04:05:03;2.00;99.90
21271;DHT22;10795;50.796;3.860;2024-02-28T04:07:29;2.10;99.90
21271;DHT22;10795;50.796;3.860;2024-02-28T04:09:57;2.10;99.90
21271;DHT22;10795;50.796;3.860;2024-02-28T04:12:23;2.10;99.90
21271;DHT22;10795;50.796;3.860;2024-02-28T04:14:51;2.40;99.90
21271;DHT22;10795;50.796;3.860;2024-02-28T04:17:19;2.20;99.90
21271;DHT22;10795;50.796;3.860;2024-02-28T04:19:48;2.30;99.90
21271;DHT22;10795;50.796;3.860;2024-02-28T04:22:16;2.10;99.90
21271;DHT22;10795;50.796;3.860;2024-02-28T04:24:42;2.10;99.90
21271;DHT22;10795;50.796;3.860;2024-02-28T04:27:07;2.40;99.90
21271;DHT22;10795;50.796;3.860;2024-02-28T04:29:35;2.30;99.90
21271;DHT22;10795;50.796;3.860;2024-02-28T04:32:04;2.40;99.90
21271;DHT22;10795;50.796;3.860;2024-02-28T04:34:30;2.50;99.90
21271;DHT22;10795;50.796;3.860;2024-02-28T04:36:55;2.60;99.90
21271;DHT22;10795;50.796;3.860;2024-02-28T04:39:21;2.50;99.90
21271;DHT22;10795;50.796;3.860;2024-02-28T04:41:49;2.70;99.90
21271;DHT22;10795;50.796;3.860;2024-02-28T04:44:15;2.70;99.90
21271;DHT22;10795;50.796;3.860;2024-02-28T04:46:43;2.80;99.90
21271;DHT22;10795;50.796;3.860;2024-02-28T04:49:13;2.80;99.90
21271;DHT22;10795;50.796;3.860;2024-02-28T04:51:39;3.20;99.90
21271;DHT22;10795;50.796;3.860;2024-02-28T04:54:05;3.50;99.90
21271;DHT22;10795;50.796;3.860;2024-02-28T04:56:31;3.60;99.90
21271;DHT22;10795;50.796;3.860;2024-02-28T04:58:59;3.20;99.90
21271;DHT22;10795;50.796;3.860;2024-02-28T05:01:27;3.10;99.90
21271;DHT22;10795;50.796;3.860;2024-02-28T05:03:53;3.20;99.90
21271;DHT22;10795;50.796;3.860;2024-02-28T05:06:22;3.20;99.90
21271;DHT22;10795;50.796;3.860;2024-02-28T05:08:52;3.20;99.90
21271;DHT22;10795;50.796;3.860;2024-02-28T05:11:22;3.50;99.90
21271;DHT22;10795;50.796;3.860;2024-02-28T05:13:48;3.30;99.90
21271;DHT22;10795;50.796;3.860;2024-02-28T05:16:15;3.40;99.90
21271;DHT22;10795;50.796;3.860;2024-02-28T05:18:41;3.70;99.90
21271;DHT22;10795;50.796;3.860;2024-02-28T05:21:07;3.70;99.90
21271;DHT22;10795;50.796;3.860;2024-02-28T05:23:35;3.80;99.90
21271;DHT22;10795;50.796;3.860;2024-02-28T05:26:03;3.80;99.90
21271;DHT22;10795;50.796;3.860;2024-02-28T05:28:31;3.70;99.90
21271;DHT22;10795;50.796;3.860;2024-02-28T05:30:58;3.40;99.90
21271;DHT22;10795;50.796;3.860;2024-02-28T05:33:28;3.50;99.90
21271;DHT22;10795;50.796;3.860;2024-02-28T05:35:54;3.40;99.90
21271;DHT22;10795;50.796;3.860;2024-02-28T05:38:20;3.20;99.90
21271;DHT22;10795;50.796;3.860;2024-02-28T05:40:46;3.30;99.90
21271;DHT22;10795;50.796;3.860;2024-02-28T05:43:14;3.30;99.90
21271;DHT22;10795;50.796;3.860;2024-02-28T05:45:40;3.20;99.90
21271;DHT22;10795;50.796;3.860;2024-02-28T05:48:06;3.10;99.90
21271;DHT22;10795;50.796;3.860;2024-02-28T05:50:31;3.00;99.90
21271;DHT22;10795;50.796;3.860;2024-02-28T05:52:58;3.10;99.90
21271;DHT22;10795;50.796;3.860;2024-02-28T05:55:24;3.20;99.90
21271;DHT22;10795;50.796;3.860;2024-02-28T05:57:53;3.20;99.90
21271;DHT22;10795;50.796;3.860;2024-02-28T06:00:19;3.30;99.90
21271;DHT22;10795;50.796;3.860;2024-02-28T06:02:45;3.30;99.90
21271;DHT22;10795;50.796;3.860;2024-02-28T06:05:12;3.30;99.90
21271;DHT22;10795;50.796;3.860;2024-02-28T06:07:40;3.40;99.90
21271;DHT22;10795;50.796;3.860;2024-02-28T06:10:08;3.60;99.90
21271;DHT22;10795;50.796;3.860;2024-02-28T06:12:41;3.70;99.90
21271;DHT22;10795;50.796;3.860;2024-02-28T06:15:10;3.60;99.90
21271;DHT22;10795;50.796;3.860;2024-02-28T06:17:36;3.60;99.90
21271;DHT22;10795;50.796;3.860;2024-02-28T06:20:05;3.60;99.90
21271;DHT22;10795;50.796;3.860;2024-02-28T06:22:35;3.40;99.90
21271;DHT22;10795;50.796;3.860;2024-02-28T06:25:01;3.50;99.90
21271;DHT22;10795;50.796;3.860;2024-02-28T06:27:27;3.50;99.90
21271;DHT22;10795;50.796;3.860;2024-02-28T06:29:53;3.50;99.90
21271;DHT22;10795;50.796;3.860;2024-02-28T06:32:23;3.60;99.90
21271;DHT22;10795;50.796;3.860;2024-02-28T06:34:54;3.40;99.90
21271;DHT22;10795;50.796;3.860;2024-02-28T06:37:20;3.50;99.90
21271;DHT22;10795;50.796;3.860;2024-02-28T06:39:46;3.60;99.90
21271;DHT22;10795;50.796;3.860;2024-02-28T06:42:11;3.80;99.90
21271;DHT22;10795;50.796;3.860;2024-02-28T06:44:39;3.80;99.90
21271;DHT22;10795;50.796;3.860;2024-02-28T06:47:05;3.90;99.90
21271;DHT22;10795;50.796;3.860;2024-02-28T06:49:31;3.90;99.90
21271;DHT22;10795;50.796;3.860;2024-02-28T06:51:59;3.90;99.90
21271;DHT22;10795;50.796;3.860;2024-02-28T06:54:28;3.80;99.90
21271;DHT22;10795;50.796;3.860;2024-02-28T06:56:54;3.50;99.90
21271;DHT22;10795;50.796;3.860;2024-02-28T06:59:20;3.30;99.90
21271;DHT22;10795;50.796;3.860;2024-02-28T07:01:46;3.50;99.90
21271;DHT22;10795;50.796;3.860;2024-02-28T07:04:12;3.80;99.90
21271;DHT22;10795;50.796;3.860;2024-02-28T07:06:40;3.70;99.90
21271;DHT22;10795;50.796;3.860;2024-02-28T07:09:09;4.00;99.90
21271;DHT22;10795;50.796;3.860;2024-02-28T07:11:37;3.90;99.90
21271;DHT22;10795;50.796;3.860;2024-02-28T07:14:08;3.80;99.90
21271;DHT22;10795;50.796;3.860;2024-02-28T07:16:43;3.80;99.90
21271;DHT22;10795;50.796;3.860;2024-02-28T07:19:12;3.90;99.90
21271;DHT22;10795;50.796;3.860;2024-02-28T07:21:41;3.80;99.90
21271;DHT22;10795;50.796;3.860;2024-02-28T07:24:06;3.90;99.90
21271;DHT22;10795;50.796;3.860;2024-02-28T07:26:37;4.00;99.90
21271;DHT22;10795;50.796;3.860;2024-02-28T07:29:03;4.00;99.90
21271;DHT22;10795;50.796;3.860;2024-02-28T07:31:34;4.00;99.90
21271;DHT22;10795;50.796;3.860;2024-02-28T07:34:05;4.20;99.90
21271;DHT22;10795;50.796;3.860;2024-02-28T07:36:33;4.30;99.90
21271;DHT22;10795;50.796;3.860;2024-02-28T07:38:59;4.30;99.90
21271;DHT22;10795;50.796;3.860;2024-02-28T07:41:25;4.40;99.90
21271;DHT22;10795;50.796;3.860;2024-02-28T07:43:53;4.40;99.90
21271;DHT22;10795;50.796;3.860;2024-02-28T07:46:19;4.60;99.90
21271;DHT22;10795;50.796;3.860;2024-02-28T07:48:45;4.60;99.90
21271;DHT22;10795;50.796;3.860;2024-02-28T07:51:13;4.60;99.90
21271;DHT22;10795;50.796;3.860;2024-02-28T07:53:41;4.70;99.90
21271;DHT22;10795;50.796;3.860;2024-02-28T07:56:07;4.80;99.90
21271;DHT22;10795;50.796;3.860;2024-02-28T07:58:40;4.80;99.90
21271;DHT22;10795;50.796;3.860;2024-02-28T08:01:08;4.90;99.90
21271;DHT22;10795;50.796;3.860;2024-02-28T08:03:37;5.00;99.90
21271;DHT22;10795;50.796;3.860;2024-02-28T08:06:04;5.00;99.90
21271;DHT22;10795;50.796;3.860;2024-02-28T08:08:30;4.90;99.90
21271;DHT22;10795;50.796;3.860;2024-02-28T08:11:00;4.80;99.90
21271;DHT22;10795;50.796;3.860;2024-02-28T08:13:29;4.70;99.90
21271;DHT22;10795;50.796;3.860;2024-02-28T08:15:57;4.70;99.90
21271;DHT22;10795;50.796;3.860;2024-02-28T08:18:27;4.80;99.90
21271;DHT22;10795;50.796;3.860;2024-02-28T08:20:55;5.00;99.90
21271;DHT22;10795;50.796;3.860;2024-02-28T08:23:24;4.60;99.90
21271;DHT22;10795;50.796;3.860;2024-02-28T08:25:52;4.60;99.90
21271;DHT22;10795;50.796;3.860;2024-02-28T08:28:21;4.50;99.90
21271;DHT22;10795;50.796;3.860;2024-02-28T08:30:48;4.70;99.90
21271;DHT22;10795;50.796;3.860;2024-02-28T08:33:14;4.60;99.90
21271;DHT22;10795;50.796;3.860;2024-02-28T08:35:41;4.60;99.90
21271;DHT22;10795;50.796;3.860;2024-02-28T08:38:13;4.60;99.90
21271;DHT22;10795;50.796;3.860;2024-02-28T08:40:43;4.60;99.90
21271;DHT22;10795;50.796;3.860;2024-02-28T08:43:14;4.70;99.90
21271;DHT22;10795;50.796;3.860;2024-02-28T08:45:42;4.80;99.90
21271;DHT22;10795;50.796;3.860;2024-02-28T08:48:08;4.70;99.90
21271;DHT22;10795;50.796;3.860;2024-02-28T08:50:36;4.80;99.90
21271;DHT22;10795;50.796;3.860;2024-02-28T08:53:02;4.90;99.90
21271;DHT22;10795;50.796;3.860;2024-02-28T08:55:28;5.00;99.90
21271;DHT22;10795;50.796;3.860;2024-02-28T08:57:55;5.00;99.90
21271;DHT22;10795;50.796;3.860;2024-02-28T09:00:23;5.20;99.90
21271;DHT22;10795;50.796;3.860;2024-02-28T09:02:51;5.30;99.90
21271;DHT22;10795;50.796;3.860;2024-02-28T09:05:21;5.30;99.90
21271;DHT22;10795;50.796;3.860;2024-02-28T09:07:47;5.40;99.90
21271;DHT22;10795;50.796;3.860;2024-02-28T09:10:16;5.50;99.90
21271;DHT22;10795;50.796;3.860;2024-02-28T09:12:47;5.50;99.90
21271;DHT22;10795;50.796;3.860;2024-02-28T09:15:13;5.50;99.90
21271;DHT22;10795;50.796;3.860;2024-02-28T09:17:38;5.70;99.90
21271;DHT22;10795;50.796;3.860;2024-02-28T09:20:04;5.80;99.90
21271;DHT22;10795;50.796;3.860;2024-02-28T09:22:32;6.00;99.90
21271;DHT22;10795;50.796;3.860;2024-02-28T09:24:57;6.20;99.90
21271;DHT22;10795;50.796;3.860;2024-02-28T09:27:25;6.30;99.90
21271;DHT22;10795;50.796;3.860;2024-02-28T09:29:51;6.40;99.90
21271;DHT22;10795;50.796;3.860;2024-02-28T09:32:19;6.40;99.90
21271;DHT22;10795;50.796;3.860;2024-02-28T09:34:45;6.50;99.90
21271;DHT22;10795;50.796;3.860;2024-02-28T09:37:11;6.80;99.90
21271;DHT22;10795;50.796;3.860;2024-02-28T09:39:41;7.10;99.90
21271;DHT22;10795;50.796;3.860;2024-02-28T09:42:09;7.10;99.90
21271;DHT22;10795;50.796;3.860;2024-02-28T09:44:36;7.10;99.90
21271;DHT22;10795;50.796;3.860;2024-02-28T09:47:05;7.20;99.90
21271;DHT22;10795;50.796;3.860;2024-02-28T09:49:32;7.00;99.90
21271;DHT22;10795;50.796;3.860;2024-02-28T09:51:59;7.00;99.90
21271;DHT22;10795;50.796;3.860;2024-02-28T09:54:28;7.00;99.90
21271;DHT22;10795;50.796;3.860;2024-02-28T09:56:57;7.10;99.90
21271;DHT22;10795;50.796;3.860;2024-02-28T09:59:24;7.20;99.90
21271;DHT22;10795;50.796;3.860;2024-02-28T10:01:58;7.20;99.90
21271;DHT22;10795;50.796;3.860;2024-02-28T10:04:28;7.30;99.90
21271;DHT22;10795;50.796;3.860;2024-02-28T10:06:55;7.50;99.90
21271;DHT22;10795;50.796;3.860;2024-02-28T10:09:23;7.60;99.90
21271;DHT22;10795;50.796;3.860;2024-02-28T10:11:49;7.70;99.90
21271;DHT22;10795;50.796;3.860;2024-02-28T10:14:18;7.80;99.90
21271;DHT22;10795;50.796;3.860;2024-02-28T10:16:45;7.90;99.90
21271;DHT22;10795;50.796;3.860;2024-02-28T10:19:11;7.70;99.90
21271;DHT22;10795;50.796;3.860;2024-02-28T10:21:39;7.60;99.90
21271;DHT22;10795;50.796;3.860;2024-02-28T10:24:07;7.80;99.90
21271;DHT22;10795;50.796;3.860;2024-02-28T10:26:41;8.00;99.90
21271;DHT22;10795;50.796;3.860;2024-02-28T10:29:07;7.90;99.90
21271;DHT22;10795;50.796;3.860;2024-02-28T10:31:33;7.70;99.90
21271;DHT22;10795;50.796;3.860;2024-02-28T10:34:02;7.60;99.90
21271;DHT22;10795;50.796;3.860;2024-02-28T10:36:32;7.70;99.90
21271;DHT22;10795;50.796;3.860;2024-02-28T10:38:58;7.80;99.90
21271;DHT22;10795;50.796;3.860;2024-02-28T10:41:26;8.00;99.90
21271;DHT22;10795;50.796;3.860;2024-02-28T10:43:53;8.20;99.90
21271;DHT22;10795;50.796;3.860;2024-02-28T10:46:20;8.20;99.90
21271;DHT22;10795;50.796;3.860;2024-02-28T10:48:52;8.30;99.90
21271;DHT22;10795;50.796;3.860;2024-02-28T10:51:24;8.30;99.90
21271;DHT22;10795;50.796;3.860;2024-02-28T10:54:02;8.30;99.90
21271;DHT22;10795;50.796;3.860;2024-02-28T10:56:32;8.40;99.90
21271;DHT22;10795;50.796;3.860;2024-02-28T10:59:01;8.40;99.90
21271;DHT22;10795;50.796;3.860;2024-02-28T11:01:28;8.50;99.90
21271;DHT22;10795;50.796;3.860;2024-02-28T11:04:01;8.40;99.90
21271;DHT22;10795;50.796;3.860;2024-02-28T11:06:30;8.50;99.90
21271;DHT22;10795;50.796;3.860;2024-02-28T11:09:00;8.60;99.90
21271;DHT22;10795;50.796;3.860;2024-02-28T11:11:32;8.50;99.90
21271;DHT22;10795;50.796;3.860;2024-02-28T11:13:59;8.50;99.90
21271;DHT22;10795;50.796;3.860;2024-02-28T11:16:33;8.50;99.90
21271;DHT22;10795;50.796;3.860;2024-02-28T11:19:01;8.60;99.90
21271;DHT22;10795;50.796;3.860;2024-02-28T11:21:29;8.50;99.90
21271;DHT22;10795;50.796;3.860;2024-02-28T11:23:59;8.60;99.90
21271;DHT22;10795;50.796;3.860;2024-02-28T11:26:25;8.50;99.90
21271;DHT22;10795;50.796;3.860;2024-02-28T11:28:54;8.70;99.90
21271;DHT22;10795;50.796;3.860;2024-02-28T11:31:21;8.70;99.90
21271;DHT22;10795;50.796;3.860;2024-02-28T11:33:49;8.70;99.90
21271;DHT22;10795;50.796;3.860;2024-02-28T11:36:16;8.60;99.90
21271;DHT22;10795;50.796;3.860;2024-02-28T11:38:44;8.70;99.90
21271;DHT22;10795;50.796;3.860;2024-02-28T11:41:12;8.80;99.90
21271;DHT22;10795;50.796;3.860;2024-02-28T11:43:40;9.00;99.90
21271;DHT22;10795;50.796;3.860;2024-02-28T11:46:11;8.90;99.90
21271;DHT22;10795;50.796;3.860;2024-02-28T11:48:40;8.80;99.90
21271;DHT22;10795;50.796;3.860;2024-02-28T11:51:06;8.90;99.90
21271;DHT22;10795;50.796;3.860;2024-02-28T11:53:32;9.10;99.90
21271;DHT22;10795;50.796;3.860;2024-02-28T11:56:00;9.40;99.90
21271;DHT22;10795;50.796;3.860;2024-02-28T11:58:29;9.50;99.90
21271;DHT22;10795;50.796;3.860;2024-02-28T12:00:54;9.50;99.90
21271;DHT22;10795;50.796;3.860;2024-02-28T12:03:25;9.60;99.90
21271;DHT22;10795;50.796;3.860;2024-02-28T12:05:53;9.40;99.90
21271;DHT22;10795;50.796;3.860;2024-02-28T12:08:19;9.50;99.90
21271;DHT22;10795;50.796;3.860;2024-02-28T12:10:48;9.50;99.90
21271;DHT22;10795;50.796;3.860;2024-02-28T12:13:22;9.60;99.90
21271;DHT22;10795;50.796;3.860;2024-02-28T12:15:48;9.60;99.90
21271;DHT22;10795;50.796;3.860;2024-02-28T12:18:17;9.80;99.90
21271;DHT22;10795;50.796;3.860;2024-02-28T12:20:43;9.50;99.90
21271;DHT22;10795;50.796;3.860;2024-02-28T12:23:09;9.50;99.90
21271;DHT22;10795;50.796;3.860;2024-02-28T12:25:35;9.60;99.90
21271;DHT22;10795;50.796;3.860;2024-02-28T12:28:04;9.60;99.90
21271;DHT22;10795;50.796;3.860;2024-02-28T12:30:40;9.60;99.90
21271;DHT22;10795;50.796;3.860;2024-02-28T12:33:06;9.50;99.90
21271;DHT22;10795;50.796;3.860;2024-02-28T12:35:32;9.50;99.90
21271;DHT22;10795;50.796;3.860;2024-02-28T12:37:58;9.50;99.90
21271;DHT22;10795;50.796;3.860;2024-02-28T12:40:24;9.50;99.90
21271;DHT22;10795;50.796;3.860;2024-02-28T12:42:51;9.50;99.90
21271;DHT22;10795;50.796;3.860;2024-02-28T12:45:16;9.50;99.90
21271;DHT22;10795;50.796;3.860;2024-02-28T12:47:43;9.60;99.90
21271;DHT22;10795;50.796;3.860;2024-02-28T12:50:09;9.70;99.90
21271;DHT22;10795;50.796;3.860;2024-02-28T12:52:37;9.70;99.90
21271;DHT22;10795;50.796;3.860;2024-02-28T12:55:06;10.00;99.90
21271;DHT22;10795;50.796;3.860;2024-02-28T12:57:35;10.00;99.90
21271;DHT22;10795;50.796;3.860;2024-02-28T13:00:01;9.90;99.90
21271;DHT22;10795;50.796;3.860;2024-02-28T13:02:27;10.00;99.90
21271;DHT22;10795;50.796;3.860;2024-02-28T13:04:52;10.00;99.90
21271;DHT22;10795;50.796;3.860;2024-02-28T13:07:19;10.10;99.90
21271;DHT22;10795;50.796;3.860;2024-02-28T13:09:52;10.00;99.90
21271;DHT22;10795;50.796;3.860;2024-02-28T13:12:23;10.00;99.90
21271;DHT22;10795;50.796;3.860;2024-02-28T13:14:49;9.90;99.90
21271;DHT22;10795;50.796;3.860;2024-02-28T13:17:17;9.90;99.90
21271;DHT22;10795;50.796;3.860;2024-02-28T13:19:44;9.80;99.90
21271;DHT22;10795;50.796;3.860;2024-02-28T13:22:15;10.10;99.90
21271;DHT22;10795;50.796;3.860;2024-02-28T13:24:43;10.20;99.90
21271;DHT22;10795;50.796;3.860;2024-02-28T13:27:09;10.20;99.90
21271;DHT22;10795;50.796;3.860;2024-02-28T13:29:37;10.10;99.90
21271;DHT22;10795;50.796;3.860;2024-02-28T13:32:03;10.20;99.90
21271;DHT22;10795;50.796;3.860;2024-02-28T13:34:32;10.40;99.90
21271;DHT22;10795;50.796;3.860;2024-02-28T13:36:58;10.30;99.90
21271;DHT22;10795;50.796;3.860;2024-02-28T13:39:26;10.10;99.90
21271;DHT22;10795;50.796;3.860;2024-02-28T13:41:55;10.20;99.90
21271;DHT22;10795;50.796;3.860;2024-02-28T13:44:21;10.40;99.90
21271;DHT22;10795;50.796;3.860;2024-02-28T13:46:54;10.40;99.90
21271;DHT22;10795;50.796;3.860;2024-02-28T13:49:24;10.60;99.90
21271;DHT22;10795;50.796;3.860;2024-02-28T13:51:50;10.70;99.90
21271;DHT22;10795;50.796;3.860;2024-02-28T13:54:18;10.70;99.90
21271;DHT22;10795;50.796;3.860;2024-02-28T13:56:44;10.90;99.90
21271;DHT22;10795;50.796;3.860;2024-02-28T13:59:10;10.90;99.90
21271;DHT22;10795;50.796;3.860;2024-02-28T14:01:40;10.80;99.90
21271;DHT22;10795;50.796;3.860;2024-02-28T14:04:07;10.90;99.90
21271;DHT22;10795;50.796;3.860;2024-02-28T14:06:32;10.70;99.90
21271;DHT22;10795;50.796;3.860;2024-02-28T14:09:03;10.70;99.90
21271;DHT22;10795;50.796;3.860;2024-02-28T14:11:30;10.80;99.90
21271;DHT22;10795;50.796;3.860;2024-02-28T14:13:59;10.80;99.90
21271;DHT22;10795;50.796;3.860;2024-02-28T14:16:29;10.90;99.90
21271;DHT22;10795;50.796;3.860;2024-02-28T14:19:00;10.70;99.90
21271;DHT22;10795;50.796;3.860;2024-02-28T14:21:28;10.80;99.90
21271;DHT22;10795;50.796;3.860;2024-02-28T14:23:59;11.10;99.90
21271;DHT22;10795;50.796;3.860;2024-02-28T14:26:25;10.80;99.90
21271;DHT22;10795;50.796;3.860;2024-02-28T14:28:50;10.70;99.90
21271;DHT22;10795;50.796;3.860;2024-02-28T14:31:19;10.60;99.90
21271;DHT22;10795;50.796;3.860;2024-02-28T14:33:45;10.60;99.90
21271;DHT22;10795;50.796;3.860;2024-02-28T14:36:13;10.60;99.90
21271;DHT22;10795;50.796;3.860;2024-02-28T14:38:40;10.50;99.90
21271;DHT22;10795;50.796;3.860;2024-02-28T14:41:10;10.60;99.90
21271;DHT22;10795;50.796;3.860;2024-02-28T14:43:37;10.80;99.90
21271;DHT22;10795;50.796;3.860;2024-02-28T14:46:05;10.80;99.90
21271;DHT22;10795;50.796;3.860;2024-02-28T14:48:35;10.50;99.90
21271;DHT22;10795;50.796;3.860;2024-02-28T14:51:01;10.50;99.90
21271;DHT22;10795;50.796;3.860;2024-02-28T14:53:28;10.50;99.90
21271;DHT22;10795;50.796;3.860;2024-02-28T14:55:58;10.60;99.90
21271;DHT22;10795;50.796;3.860;2024-02-28T14:58:24;10.60;99.90
21271;DHT22;10795;50.796;3.860;2024-02-28T15:00:52;10.50;99.90
21271;DHT22;10795;50.796;3.860;2024-02-28T15:03:26;10.40;99.90
21271;DHT22;10795;50.796;3.860;2024-02-28T15:05:54;10.30;99.90
21271;DHT22;10795;50.796;3.860;2024-02-28T15:08:20;10.40;99.90
21271;DHT22;10795;50.796;3.860;2024-02-28T15:10:46;10.20;99.90
21271;DHT22;10795;50.796;3.860;2024-02-28T15:13:11;10.30;99.90
21271;DHT22;10795;50.796;3.860;2024-02-28T15:15:37;10.40;99.90
21271;DHT22;10795;50.796;3.860;2024-02-28T15:18:03;10.20;99.90
21271;DHT22;10795;50.796;3.860;2024-02-28T15:20:33;10.20;99.90
21271;DHT22;10795;50.796;3.860;2024-02-28T15:22:59;10.20;99.90
21271;DHT22;10795;50.796;3.860;2024-02-28T15:25:25;10.20;99.90
21271;DHT22;10795;50.796;3.860;2024-02-28T15:27:55;10.50;99.90
21271;DHT22;10795;50.796;3.860;2024-02-28T15:30:21;10.30;99.90
21271;DHT22;10795;50.796;3.860;2024-02-28T15:32:47;10.40;99.90
21271;DHT22;10795;50.796;3.860;2024-02-28T15:35:15;10.20;99.90
21271;DHT22;10795;50.796;3.860;2024-02-28T15:37:41;9.90;99.90
21271;DHT22;10795;50.796;3.860;2024-02-28T15:40:07;10.00;99.90
21271;DHT22;10795;50.796;3.860;2024-02-28T15:42:36;10.20;99.90
21271;DHT22;10795;50.796;3.860;2024-02-28T15:45:04;10.00;99.90